METAR Data
IDs: Format: Raw Decoded Include TAF

Data at: 1550 UTC 21 Sep 2018

KHWV 211456Z AUTO 14009KT 10SM OVC060 21/13 A3026 RMK AO2 SLP245 T02060133 58007
KHWV 211356Z AUTO 15010KT 10SM CLR 21/14 A3027 RMK AO2 SLP251 T02110139
KHWV 211256Z AUTO 14007KT 10SM CLR 21/14 A3028 RMK AO2 SLP251 T02060139
KHWV 211156Z AUTO 14006KT 10SM OVC060 19/14 A3028 RMK AO2 SLP252 T01890144 10200 20183 50006
KHWV 211056Z AUTO 14003KT 10SM FEW025 OVC060 18/14 A3029 RMK AO2 SLP256 T01830144
KHWV 210956Z AUTO 15004KT 10SM FEW023 OVC060 18/14 A3027 RMK AO2 SLP250 T01830144
KHWV 210856Z AUTO 16005KT 10SM OVC055 18/15 A3026 RMK AO2 SLP246 T01830150 52001
KHWV 210819Z AUTO 14006KT 10SM FEW018 BKN035 OVC055 18/15 A3025 RMK AO2 T01830150
KHWV 210756Z AUTO 14007KT 10SM SCT018 BKN027 OVC050 19/15 A3026 RMK AO2 SLP245 T01890150
KHWV 210751Z AUTO 15005KT 10SM FEW018 BKN026 OVC050 19/15 A3026 RMK AO2
KHWV 210727Z AUTO 14005KT 10SM FEW020 BKN033 OVC055 18/14 A3026 RMK AO2 T01830144
KHWV 210720Z AUTO 14004KT 10SM FEW020 BKN029 OVC055 18/14 A3026 RMK AO2 T01830144
KHWV 210656Z AUTO 14005KT 10SM OVC055 18/14 A3026 RMK AO2 SLP245 T01830144
KHWV 210556Z AUTO 14006KT 10SM FEW027 SCT055 18/14 A3027 RMK AO2 SLP248 T01830144 10189 20183 58000
KHWV 210543Z AUTO 14007KT 10SM FEW017 SCT026 BKN055 18/15 A3027 RMK AO2 T01830150
KHWV 210533Z AUTO 14006KT 10SM FEW017 SCT022 BKN026 19/15 A3027 RMK AO2 T01890150
KHWV 210456Z AUTO 13005KT 10SM FEW026 FEW050 19/14 A3027 RMK AO2 SLP248 T01890144 402330156
KHWV 210446Z AUTO 14006KT 10SM FEW026 BKN050 18/14 A3027 RMK AO2 T01830144
KHWV 210404Z AUTO 00000KT 10SM BKN017 BKN023 OVC050 18/15 A3028 RMK AO2 T01830150
KHWV 210356Z AUTO 00000KT 10SM SCT018 BKN050 18/15 A3028 RMK AO2 SLP252 T01830150
KHWV 210256Z AUTO 14005KT 10SM OVC050 18/15 A3027 RMK AO2 SLP249 T01830150 50008
KHWV 210156Z AUTO VRB03KT 10SM OVC050 18/15 A3027 RMK AO2 SLP251 T01830150
KHWV 210056Z AUTO 14004KT 10SM BKN050 18/15 A3027 RMK AO2 SLP251 T01830150
KHWV 202356Z AUTO 12004KT 10SM OVC050 18/15 A3025 RMK AO2 SLP242 T01830150 10233 20178 51006
KHWV 202256Z AUTO 12004KT 10SM CLR 18/15 A3024 RMK AO2 SLP241 T01780150
KHWV 202156Z AUTO 13004KT 10SM FEW038 SCT047 19/14 A3024 RMK AO2 SLP239 T01940144
KHWV 202056Z AUTO VRB05KT 10SM BKN040 BKN049 21/15 A3023 RMK AO2 SLP235 T02110150 53001
KHWV 201956Z AUTO 13005KT 10SM FEW026 SCT032 BKN043 21/14 A3022 RMK AO2 SLP233 T02060144
KHWV 201856Z AUTO VRB04KT 10SM CLR 23/14 A3022 RMK AO2 SLP234 T02280139
KHWV 201756Z AUTO 02006KT 10SM CLR 22/13 A3022 RMK AO2 SLP234 T02220133 10228 20167 58003
KHWV 201656Z AUTO 36005KT 10SM SCT026 OVC055 22/14 A3024 RMK AO2 SLP239 T02170139
KHWV 201556Z AUTO VRB04KT 10SM SCT055 21/14 A3025 RMK AO2 SLP241 T02110144
KHWV 201456Z AUTO 02007KT 10SM FEW018 BKN055 20/14 A3023 RMK AO2 SLP237 T02000139 51018
KHWV 201356Z AUTO 01003KT 10SM OVC055 18/14 A3022 RMK AO2 SLP233 T01830139
KHWV 201256Z AUTO 36005KT 10SM OVC055 18/13 A3020 RMK AO2 SLP227 T01780133
KHWV 201156Z AUTO 36003KT 10SM OVC055 17/13 A3018 RMK AO2 SLP220 T01670133 10178 20156 53020
KHWV 201056Z AUTO 03003KT 10SM OVC060 16/13 A3016 RMK AO2 SLP211 T01610128
KHWV 200956Z AUTO 02004KT 10SM OVC060 17/13 A3014 RMK AO2 SLP205 T01670128
KHWV 200916Z AUTO VRB03KT 10SM SCT023 OVC060 17/13 A3013 RMK AO2 T01670128
KHWV 200907Z AUTO VRB03KT 10SM BKN023 OVC060 17/13 A3012 RMK AO2 T01670128
KHWV 200856Z AUTO 00000KT 10SM SCT023 OVC060 17/12 A3012 RMK AO2 SLP198 T01670122 53005
KHWV 200756Z AUTO VRB03KT 10SM BKN060 16/12 A3011 RMK AO2 SLP195 T01610122
KHWV 200709Z AUTO 00000KT 10SM SCT022 16/12 A3010 RMK AO2 T01610122
KHWV 200656Z AUTO VRB04KT 10SM BKN022 17/12 A3010 RMK AO2 SLP193 T01670122
KHWV 200654Z AUTO VRB04KT 10SM BKN022 BKN037 17/12 A3011 RMK AO2
KHWV 200556Z AUTO VRB04KT 10SM FEW023 OVC036 17/12 A3010 RMK AO2 SLP192 T01720122 10200 20172 51010
KHWV 200456Z AUTO VRB06KT 10SM OVC032 17/12 A3009 RMK AO2 SLP189 T01720122 402560172
KHWV 200356Z AUTO VRB05KT 10SM OVC035 17/13 A3009 RMK AO2 SLP189 T01720128